Time;durP1;ratioP1;P1;durP2;ratioP2;P2;SDS_P1;SDS_P2;PMS_P1;PMS_P2;Temp;Humidity;BMP_temperature;BMP_pressure;BME280_temperature;BME280_humidity;BME280_pressure;Samples;Min_cycle;Max_cycle;Signal;HPM_P1;HPM_P2
2022/11/01 00:00:18;;;;;;;7.30;4.00;;;17.80;99.90;;;;;;5053616;28;20021;-61
2022/11/01 00:02:43;;;;;;;7.75;4.65;;;17.80;99.90;;;;;;5051236;28;20466;-60
2022/11/01 00:05:09;;;;;;;6.82;4.25;;;17.90;99.90;;;;;;5051823;28;20100;-70
2022/11/01 00:07:35;;;;;;;6.75;4.55;;;17.90;99.90;;;;;;5052501;28;20075;-73
2022/11/01 00:10:01;;;;;;;7.88;4.20;;;17.90;99.90;;;;;;5048140;28;20032;-71
2022/11/01 00:12:26;;;;;;;11.50;4.97;;;17.90;99.90;;;;;;5052850;28;20032;-71
2022/11/01 00:14:52;;;;;;;7.30;4.57;;;17.90;99.90;;;;;;5053419;28;20075;-77
2022/11/01 00:17:17;;;;;;;13.75;4.93;;;17.90;99.90;;;;;;5052891;28;20025;-62
2022/11/01 00:19:43;;;;;;;8.85;4.35;;;17.80;99.90;;;;;;5052866;28;20120;-65
2022/11/01 00:22:08;;;;;;;8.45;4.47;;;17.80;99.90;;;;;;5051371;28;20127;-74
2022/11/01 00:24:34;;;;;;;8.60;4.30;;;17.80;99.90;;;;;;5052101;28;20060;-79
2022/11/01 00:27:00;;;;;;;8.65;4.00;;;17.80;99.90;;;;;;5053260;28;20086;-80
2022/11/01 00:29:26;;;;;;;9.45;4.47;;;17.80;99.90;;;;;;5053040;28;20466;-63
2022/11/01 00:31:51;;;;;;;7.28;3.90;;;17.90;99.90;;;;;;5052707;28;20044;-60
2022/11/01 00:34:17;;;;;;;7.78;4.70;;;17.80;99.90;;;;;;5051202;28;20111;-79
2022/11/01 00:36:43;;;;;;;7.70;4.40;;;17.90;99.90;;;;;;5052762;28;20390;-61
2022/11/01 00:39:12;;;;;;;7.45;4.80;;;17.90;99.90;;;;;;5050577;28;20557;-76
2022/11/01 00:41:38;;;;;;;7.40;4.22;;;17.80;99.90;;;;;;5052808;28;20029;-61
2022/11/01 00:44:04;;;;;;;5.97;3.92;;;17.90;99.90;;;;;;5047091;28;20024;-65
2022/11/01 00:46:30;;;;;;;8.65;4.57;;;17.90;99.90;;;;;;5044647;28;20055;-69
2022/11/01 00:48:56;;;;;;;7.78;4.70;;;17.90;99.90;;;;;;5049790;28;20025;-61
2022/11/01 00:51:21;;;;;;;7.53;4.05;;;17.80;99.90;;;;;;5052670;28;20083;-61
2022/11/01 00:53:47;;;;;;;8.75;5.03;;;17.90;99.90;;;;;;5052666;28;20024;-70
2022/11/01 00:56:13;;;;;;;10.38;4.35;;;17.90;99.90;;;;;;5052773;28;20413;-62
2022/11/01 00:58:38;;;;;;;8.02;4.70;;;17.90;99.90;;;;;;5053090;28;20437;-61
2022/11/01 01:01:04;;;;;;;7.90;4.57;;;17.90;99.90;;;;;;5052816;28;20051;-62
2022/11/01 01:03:30;;;;;;;8.73;4.28;;;17.90;99.90;;;;;;5052753;28;20029;-61
2022/11/01 01:05:56;;;;;;;6.53;3.90;;;17.90;99.90;;;;;;5052739;28;20459;-61
2022/11/01 01:08:22;;;;;;;6.32;3.97;;;17.90;99.90;;;;;;5052901;28;20112;-61
2022/11/01 01:10:48;;;;;;;8.32;4.20;;;17.90;99.90;;;;;;5052269;28;20033;-61
2022/11/01 01:13:14;;;;;;;9.73;4.25;;;17.90;99.90;;;;;;5052823;28;20033;-61
2022/11/01 01:15:40;;;;;;;5.68;3.72;;;17.90;99.90;;;;;;5052511;28;20036;-63
2022/11/01 01:18:05;;;;;;;6.35;3.67;;;17.90;99.90;;;;;;5052597;28;20017;-66
2022/11/01 01:20:31;;;;;;;6.63;3.78;;;18.00;99.90;;;;;;5052819;28;20509;-61
2022/11/01 01:22:58;;;;;;;9.27;3.90;;;17.90;99.90;;;;;;5052546;28;20118;-65
2022/11/01 01:25:23;;;;;;;7.28;4.35;;;17.90;99.90;;;;;;5052679;28;20453;-61
2022/11/01 01:27:49;;;;;;;4.97;3.40;;;17.90;99.90;;;;;;5052917;28;20067;-62
2022/11/01 01:30:16;;;;;;;6.70;3.88;;;17.90;99.90;;;;;;5052420;28;20106;-62
2022/11/01 01:32:41;;;;;;;6.45;3.78;;;17.90;99.90;;;;;;5050981;28;20398;-63
2022/11/01 01:35:07;;;;;;;6.50;3.47;;;17.90;99.90;;;;;;5052559;28;20025;-62
2022/11/01 01:37:33;;;;;;;7.38;3.60;;;18.00;99.90;;;;;;5052023;28;20060;-64
2022/11/01 01:39:59;;;;;;;4.55;3.50;;;18.00;99.90;;;;;;5052517;28;20028;-62
2022/11/01 01:42:40;;;;;;;5.68;3.70;;;18.00;99.90;;;;;;5052536;28;20036;-61
2022/11/01 01:45:31;;;;;;;6.80;3.35;;;17.90;99.90;;;;;;5052301;28;20033;-61
2022/11/01 01:48:17;;;;;;;4.45;3.13;;;18.00;99.90;;;;;;5032399;28;20401;-62
2022/11/01 01:51:00;;;;;;;7.50;3.05;;;17.90;99.90;;;;;;5033926;28;20029;-61
2022/11/01 01:53:34;;;;;;;4.90;2.80;;;18.00;99.90;;;;;;5052210;28;20423;-63
2022/11/01 01:56:04;;;;;;;6.53;3.28;;;18.00;99.90;;;;;;5052033;28;20103;-61
2022/11/01 01:58:38;;;;;;;4.88;3.35;;;18.00;99.90;;;;;;5052179;28;20025;-62
2022/11/01 02:01:03;;;;;;;2.95;2.60;;;18.00;99.90;;;;;;5052040;28;20437;-67
2022/11/01 02:03:32;;;;;;;3.92;2.20;;;18.00;99.90;;;;;;5052393;28;20021;-62
2022/11/01 02:06:07;;;;;;;3.08;2.03;;;18.00;99.90;;;;;;5052170;28;20484;-62
2022/11/01 02:08:35;;;;;;;4.10;2.55;;;18.00;99.90;;;;;;5052466;28;20100;-69
2022/11/01 02:11:04;;;;;;;4.43;2.22;;;18.00;99.90;;;;;;5052135;28;20037;-61
2022/11/01 02:13:30;;;;;;;4.32;2.78;;;17.90;99.90;;;;;;5051998;28;20092;-63
2022/11/01 02:16:30;;;;;;;4.30;1.80;;;18.00;99.90;;;;;;5052101;28;20068;-61
2022/11/01 02:19:17;;;;;;;3.50;1.70;;;18.00;99.90;;;;;;5051892;28;20108;-61
2022/11/01 02:22:05;;;;;;;4.05;2.10;;;17.90;99.90;;;;;;5051643;28;20029;-60
2022/11/01 02:24:43;;;;;;;3.30;2.22;;;17.90;99.90;;;;;;5052004;28;20071;-61
2022/11/01 02:27:13;;;;;;;2.38;1.80;;;17.90;99.90;;;;;;5052593;28;20079;-61
2022/11/01 02:30:01;;;;;;;3.03;1.50;;;17.90;99.90;;;;;;5055579;28;20054;-61
2022/11/01 02:32:45;;;;;;;2.20;1.35;;;17.90;99.90;;;;;;5055501;28;20100;-62
2022/11/01 02:35:27;;;;;;;3.70;1.20;;;17.90;99.90;;;;;;5055546;28;20075;-61
2022/11/01 02:37:58;;;;;;;2.70;1.90;;;17.80;99.90;;;;;;5055479;28;20025;-61
2022/11/01 02:40:31;;;;;;;3.30;1.20;;;17.80;99.90;;;;;;5055658;28;20021;-61
2022/11/01 02:43:02;;;;;;;2.45;1.65;;;17.90;99.90;;;;;;5054948;28;20031;-62
2022/11/01 02:45:34;;;;;;;2.88;1.23;;;17.80;99.90;;;;;;5035575;28;20026;-80
2022/11/01 02:48:01;;;;;;;3.60;1.58;;;17.80;99.90;;;;;;5035587;28;20091;-61
2022/11/01 02:50:35;;;;;;;2.10;1.20;;;17.80;99.90;;;;;;5054871;28;20037;-80
2022/11/01 02:53:01;;;;;;;4.72;1.60;;;17.90;99.90;;;;;;5054431;28;20051;-74
2022/11/01 02:55:30;;;;;;;2.85;1.60;;;17.80;99.90;;;;;;5055448;28;20486;-62
2022/11/01 02:58:23;;;;;;;2.20;0.95;;;17.80;99.90;;;;;;5054960;28;20112;-79
2022/11/01 03:00:49;;;;;;;2.47;1.25;;;17.80;99.90;;;;;;5039568;28;20028;-77
2022/11/01 03:03:22;;;;;;;2.20;1.40;;;17.80;99.90;;;;;;5053171;28;20039;-61
2022/11/01 03:06:01;;;;;;;3.60;1.02;;;17.80;99.90;;;;;;5054950;28;20117;-75
2022/11/01 03:08:50;;;;;;;3.90;1.60;;;17.80;99.90;;;;;;5055080;28;20347;-78
2022/11/01 03:11:17;;;;;;;2.55;1.23;;;17.80;99.90;;;;;;5054483;28;20063;-80
2022/11/01 03:13:55;;;;;;;3.20;1.38;;;17.80;99.90;;;;;;5054835;28;20493;-76
2022/11/01 03:16:28;;;;;;;2.67;1.23;;;17.80;99.90;;;;;;5054542;28;20028;-69
2022/11/01 03:19:03;;;;;;;1.98;0.88;;;17.80;99.90;;;;;;5050183;28;20017;-79
2022/11/01 03:21:35;;;;;;;4.22;1.23;;;17.80;99.90;;;;;;5034516;28;20100;-79
2022/11/01 03:24:24;;;;;;;4.25;1.70;;;17.70;99.90;;;;;;5032763;28;20083;-80
2022/11/01 03:27:01;;;;;;;1.60;0.73;;;17.70;99.90;;;;;;5034322;28;20548;-66
2022/11/01 03:29:29;;;;;;;3.97;1.15;;;17.70;99.90;;;;;;5040147;28;20471;-61
2022/11/01 03:31:56;;;;;;;2.28;1.17;;;17.70;99.90;;;;;;5054237;28;20069;-62
2022/11/01 03:34:24;;;;;;;4.20;0.93;;;17.70;99.90;;;;;;5054386;28;20017;-61
2022/11/01 03:36:58;;;;;;;2.08;0.80;;;17.70;99.90;;;;;;5054327;28;20457;-61
2022/11/01 03:39:30;;;;;;;3.13;0.95;;;17.60;99.90;;;;;;5053400;28;20021;-62
2022/11/01 03:42:02;;;;;;;2.05;0.77;;;17.60;99.90;;;;;;5054226;28;20478;-61
2022/11/01 03:44:33;;;;;;;4.45;0.57;;;17.60;99.90;;;;;;5053963;28;20029;-61
2022/11/01 03:46:59;;;;;;;2.57;0.90;;;17.60;99.90;;;;;;5054244;28;20040;-61
2022/11/01 03:49:25;;;;;;;2.58;0.80;;;17.60;99.90;;;;;;5054105;28;20473;-61
2022/11/01 03:51:50;;;;;;;3.50;0.98;;;17.60;99.90;;;;;;5054028;28;20024;-61
2022/11/01 03:54:16;;;;;;;1.83;0.80;;;17.60;99.90;;;;;;5053655;28;20099;-61
2022/11/01 03:56:41;;;;;;;2.78;0.90;;;17.60;99.90;;;;;;5054074;28;20490;-61
2022/11/01 03:59:08;;;;;;;4.93;1.10;;;17.60;99.90;;;;;;5053841;28;20036;-62
2022/11/01 04:01:34;;;;;;;2.53;0.90;;;17.60;99.90;;;;;;5053426;28;20021;-61
2022/11/01 04:04:00;;;;;;;2.72;0.45;;;17.60;99.90;;;;;;5053657;28;20074;-63
2022/11/01 04:06:25;;;;;;;2.13;0.57;;;17.50;99.90;;;;;;5053957;28;20386;-61
2022/11/01 04:08:51;;;;;;;2.20;0.50;;;17.50;99.90;;;;;;5053809;28;20024;-61
2022/11/01 04:11:17;;;;;;;2.42;0.68;;;17.50;99.90;;;;;;5053613;28;20108;-61
2022/11/01 04:13:43;;;;;;;3.38;0.60;;;17.50;99.90;;;;;;5053940;28;20025;-70
2022/11/01 04:21:38;;;;;;;2.58;0.80;;;17.50;99.90;;;;;;5053604;28;20058;-61
2022/11/01 04:24:04;;;;;;;2.80;0.40;;;17.40;99.90;;;;;;5053039;28;20070;-61
2022/11/01 04:26:30;;;;;;;2.92;0.85;;;17.50;99.90;;;;;;5053474;28;20033;-61
2022/11/01 04:28:55;;;;;;;1.63;0.52;;;17.50;99.90;;;;;;5053490;28;20470;-60
2022/11/01 04:31:33;;;;;;;3.80;0.45;;;17.50;99.90;;;;;;5053175;28;20678;-62
2022/11/01 04:34:00;;;;;;;5.22;1.10;;;17.50;99.90;;;;;;5053404;28;20381;-60
2022/11/01 04:36:26;;;;;;;1.75;0.63;;;17.50;99.90;;;;;;5053418;28;20025;-61
2022/11/01 04:38:57;;;;;;;4.97;1.00;;;17.50;99.90;;;;;;5053101;28;20059;-61
2022/11/01 04:41:24;;;;;;;3.08;0.95;;;17.40;99.90;;;;;;5053125;28;20048;-61
2022/11/01 04:43:52;;;;;;;2.92;0.75;;;17.40;99.90;;;;;;5053395;28;20102;-60
2022/11/01 04:46:18;;;;;;;4.22;1.08;;;17.40;99.90;;;;;;5052972;28;20033;-61
2022/11/01 04:48:44;;;;;;;3.05;0.82;;;17.30;99.90;;;;;;5052663;28;20111;-62
2022/11/01 04:51:10;;;;;;;6.28;1.05;;;17.30;99.90;;;;;;5052529;28;20076;-61
2022/11/01 04:53:36;;;;;;;4.63;1.13;;;17.30;99.90;;;;;;5052282;28;20021;-60
2022/11/01 04:56:03;;;;;;;2.53;0.88;;;17.30;99.90;;;;;;5052854;28;20025;-61
2022/11/01 04:58:29;;;;;;;5.82;0.90;;;17.30;99.90;;;;;;5053146;28;20021;-61
2022/11/01 05:00:54;;;;;;;3.25;0.65;;;17.30;99.90;;;;;;5052757;28;20021;-61
2022/11/01 05:03:20;;;;;;;4.40;0.77;;;17.30;99.90;;;;;;5052663;28;20037;-62
2022/11/01 05:05:45;;;;;;;2.70;0.50;;;17.30;99.90;;;;;;5053041;28;20047;-61
2022/11/01 05:08:12;;;;;;;5.85;1.13;;;17.20;99.90;;;;;;5052686;28;20017;-61
2022/11/01 05:10:40;;;;;;;2.90;0.90;;;17.20;99.90;;;;;;5052903;28;20075;-63
2022/11/01 05:13:07;;;;;;;2.88;0.85;;;17.20;99.90;;;;;;5053086;28;20021;-61
2022/11/01 05:15:33;;;;;;;2.28;0.68;;;17.20;99.90;;;;;;5052609;28;20544;-60
2022/11/01 05:18:00;;;;;;;8.27;0.90;;;17.20;99.90;;;;;;5052570;28;20037;-61
2022/11/01 05:20:26;;;;;;;3.22;0.73;;;17.20;99.90;;;;;;5052769;28;20121;-62
2022/11/01 05:23:00;;;;;;;3.40;0.82;;;17.20;99.90;;;;;;5051084;28;20508;-61
2022/11/01 05:25:26;;;;;;;4.90;0.65;;;17.10;99.90;;;;;;5052525;28;20379;-68
2022/11/01 05:27:58;;;;;;;7.03;1.02;;;17.20;99.90;;;;;;5052318;28;20422;-68
2022/11/01 05:30:23;;;;;;;6.75;1.00;;;17.10;99.90;;;;;;5052554;28;20086;-69
2022/11/01 05:32:58;;;;;;;3.60;0.88;;;17.10;99.90;;;;;;5052652;28;20025;-61
2022/11/01 05:35:24;;;;;;;3.72;0.70;;;17.10;99.90;;;;;;5052523;28;20036;-78
2022/11/01 05:37:50;;;;;;;3.80;0.93;;;17.10;99.90;;;;;;5051691;28;20105;-61
2022/11/01 05:40:16;;;;;;;6.43;1.23;;;17.00;99.90;;;;;;5052857;28;20056;-61
2022/11/01 05:42:41;;;;;;;5.22;1.15;;;17.00;99.90;;;;;;5052252;28;20050;-64
2022/11/01 05:45:08;;;;;;;4.53;1.50;;;17.00;99.90;;;;;;5051993;28;20033;-61
2022/11/01 05:47:34;;;;;;;5.18;1.45;;;17.00;99.90;;;;;;5052044;28;20072;-61
2022/11/01 05:50:00;;;;;;;4.95;0.82;;;17.00;99.90;;;;;;5050902;28;20493;-72
2022/11/01 05:52:25;;;;;;;4.32;0.90;;;17.00;99.90;;;;;;5051756;28;20032;-63
2022/11/01 05:54:51;;;;;;;2.78;0.90;;;17.00;99.90;;;;;;5052345;28;20025;-67
2022/11/01 05:57:16;;;;;;;2.33;0.95;;;16.90;99.90;;;;;;5052291;28;20025;-75
2022/11/01 05:59:42;;;;;;;3.05;0.77;;;16.90;99.90;;;;;;5052231;28;20474;-65
2022/11/01 06:02:07;;;;;;;5.63;0.98;;;16.90;99.90;;;;;;5039974;28;20091;-61
2022/11/01 06:04:33;;;;;;;3.97;0.88;;;16.90;99.90;;;;;;5036371;28;20094;-61
2022/11/01 06:06:58;;;;;;;4.13;0.85;;;16.90;99.90;;;;;;5035635;28;20026;-63
2022/11/01 06:09:24;;;;;;;4.88;1.02;;;16.90;99.90;;;;;;5036253;28;20060;-63
2022/11/01 06:11:49;;;;;;;5.60;1.10;;;16.90;99.90;;;;;;5036236;28;20518;-61
2022/11/01 06:14:15;;;;;;;4.38;0.82;;;16.90;99.90;;;;;;5051835;28;20025;-61
2022/11/01 06:16:42;;;;;;;4.78;0.85;;;16.80;99.90;;;;;;5055276;28;20028;-61
2022/11/01 06:19:08;;;;;;;3.53;0.88;;;16.90;99.90;;;;;;5055814;28;20021;-64
2022/11/01 06:21:34;;;;;;;4.45;0.98;;;16.80;99.90;;;;;;5055581;28;20032;-65
2022/11/01 06:24:00;;;;;;;6.20;1.13;;;16.80;99.90;;;;;;5055461;28;20040;-62
2022/11/01 06:26:25;;;;;;;4.55;0.73;;;16.80;99.90;;;;;;5055990;28;20107;-62
2022/11/01 06:28:51;;;;;;;6.15;1.58;;;16.80;99.90;;;;;;5055502;28;20108;-60
2022/11/01 06:31:17;;;;;;;9.25;1.20;;;16.80;99.90;;;;;;5056423;28;20533;-61
2022/11/01 06:33:42;;;;;;;4.90;1.02;;;16.70;99.90;;;;;;5056602;28;20053;-61
2022/11/01 06:36:08;;;;;;;7.05;1.40;;;16.70;99.90;;;;;;5056593;28;20033;-60
2022/11/01 06:38:34;;;;;;;5.25;1.00;;;16.70;99.90;;;;;;5056520;28;20032;-61
2022/11/01 06:40:59;;;;;;;4.05;0.88;;;16.70;99.90;;;;;;5056649;28;20096;-61
2022/11/01 06:43:25;;;;;;;3.97;0.77;;;16.70;99.90;;;;;;5056204;28;20525;-61
2022/11/01 06:45:51;;;;;;;6.45;1.08;;;16.70;99.90;;;;;;5055185;28;20104;-62
2022/11/01 06:48:16;;;;;;;4.55;1.40;;;16.70;99.90;;;;;;5056322;28;20033;-61
2022/11/01 06:50:42;;;;;;;3.88;0.90;;;16.70;99.90;;;;;;5055725;28;20044;-64
2022/11/01 06:53:08;;;;;;;4.50;1.15;;;16.60;99.90;;;;;;5056599;28;20025;-61
2022/11/01 06:55:34;;;;;;;3.55;0.52;;;16.60;99.90;;;;;;5057886;28;20127;-62
2022/11/01 06:58:02;;;;;;;5.13;1.15;;;16.60;99.90;;;;;;5056110;28;20049;-62
2022/11/01 07:00:29;;;;;;;5.82;1.10;;;16.60;99.90;;;;;;5055131;28;20522;-61
2022/11/01 07:03:03;;;;;;;8.05;1.45;;;16.60;99.90;;;;;;5054369;28;20025;-73
2022/11/01 07:05:31;;;;;;;5.57;1.13;;;16.60;99.90;;;;;;5054798;28;20112;-80
2022/11/01 07:07:57;;;;;;;4.50;0.88;;;16.60;99.90;;;;;;5054720;28;20075;-78
2022/11/01 07:10:23;;;;;;;7.13;1.83;;;16.60;99.90;;;;;;5051291;28;20052;-73
2022/11/01 07:12:49;;;;;;;4.95;1.00;;;16.60;99.90;;;;;;5053834;28;20029;-69
2022/11/01 07:15:14;;;;;;;14.27;1.45;;;16.50;99.90;;;;;;5036387;28;20037;-81
2022/11/01 07:17:40;;;;;;;6.22;1.50;;;16.60;99.90;;;;;;5040595;28;20049;-72
2022/11/01 07:20:06;;;;;;;6.63;1.45;;;16.50;99.90;;;;;;5036433;28;20018;-80
2022/11/01 07:22:32;;;;;;;8.50;2.13;;;16.50;99.90;;;;;;5044092;28;20026;-79
2022/11/01 07:24:57;;;;;;;8.00;1.27;;;16.50;99.90;;;;;;5042495;28;20035;-80
2022/11/01 07:27:23;;;;;;;9.65;1.75;;;16.50;99.90;;;;;;5053699;28;20068;-62
2022/11/01 07:29:48;;;;;;;6.28;1.05;;;16.50;99.90;;;;;;5052350;28;20449;-73
2022/11/01 07:32:14;;;;;;;4.40;1.30;;;16.50;99.90;;;;;;5049100;28;20104;-77
2022/11/01 07:34:39;;;;;;;6.32;1.30;;;16.50;99.90;;;;;;5055958;28;20099;-72
2022/11/01 07:37:05;;;;;;;8.68;1.65;;;16.50;99.90;;;;;;5056042;28;21040;-75
2022/11/01 07:39:30;;;;;;;5.45;1.50;;;16.50;99.90;;;;;;5070149;28;20036;-65
2022/11/01 07:41:57;;;;;;;6.22;1.10;;;16.50;99.90;;;;;;5052691;28;20028;-61
2022/11/01 07:44:23;;;;;;;9.23;1.58;;;16.50;99.90;;;;;;5049305;28;20481;-73
2022/11/01 07:46:49;;;;;;;9.35;2.03;;;16.50;99.90;;;;;;5052786;28;20131;-76
2022/11/01 07:49:14;;;;;;;5.97;1.63;;;16.50;99.90;;;;;;5049886;28;20493;-74
2022/11/01 07:51:40;;;;;;;7.78;1.20;;;16.50;99.90;;;;;;5055667;28;20543;-74
2022/11/01 07:54:06;;;;;;;5.28;1.42;;;16.50;99.90;;;;;;5050498;28;20021;-80
2022/11/01 07:56:31;;;;;;;7.60;1.67;;;16.50;99.90;;;;;;5053720;28;20033;-68
2022/11/01 07:58:57;;;;;;;6.85;1.45;;;16.40;99.90;;;;;;5053340;28;20032;-79
2022/11/01 08:01:22;;;;;;;10.40;1.30;;;16.50;99.90;;;;;;5052173;28;20024;-67
2022/11/01 08:03:48;;;;;;;9.43;1.65;;;16.50;99.80;;;;;;5048421;28;20075;-72
2022/11/01 08:06:14;;;;;;;7.20;1.58;;;16.50;99.90;;;;;;5033262;28;20026;-69
2022/11/01 08:08:40;;;;;;;8.75;1.67;;;16.50;99.90;;;;;;5047333;28;20036;-67
2022/11/01 08:11:05;;;;;;;9.30;2.08;;;16.60;99.90;;;;;;5054499;28;20508;-72
2022/11/01 08:13:31;;;;;;;10.35;1.98;;;16.60;99.90;;;;;;5041334;28;20028;-76
2022/11/01 08:16:01;;;;;;;6.72;1.50;;;16.60;99.80;;;;;;5032061;28;20018;-66
2022/11/01 08:18:26;;;;;;;9.13;1.38;;;16.60;99.60;;;;;;5046903;28;20048;-62
2022/11/01 08:20:52;;;;;;;15.77;1.92;;;16.60;99.60;;;;;;5051550;28;20475;-62
2022/11/01 08:23:18;;;;;;;7.72;1.67;;;16.60;99.50;;;;;;5049811;28;20064;-80
2022/11/01 08:25:44;;;;;;;9.50;1.55;;;16.60;99.30;;;;;;5050717;28;20029;-66
2022/11/01 08:28:12;;;;;;;6.88;1.40;;;16.60;99.40;;;;;;5043945;28;20025;-67
2022/11/01 08:30:39;;;;;;;12.73;2.17;;;16.60;99.30;;;;;;5049138;28;20418;-62
2022/11/01 08:33:04;;;;;;;13.35;1.95;;;16.50;99.40;;;;;;5057461;28;20621;-62
2022/11/01 08:35:31;;;;;;;12.43;2.20;;;16.50;99.30;;;;;;5052513;28;20114;-65
2022/11/01 08:38:00;;;;;;;10.52;1.70;;;16.60;99.40;;;;;;5050392;28;20430;-72
2022/11/01 08:40:29;;;;;;;10.60;1.73;;;16.60;99.20;;;;;;5048899;28;20112;-71
2022/11/01 08:42:55;;;;;;;12.40;3.00;;;16.60;99.40;;;;;;5043097;28;20705;-61
2022/11/01 08:45:21;;;;;;;13.93;2.10;;;16.70;99.40;;;;;;5048915;28;20029;-64
2022/11/01 08:47:47;;;;;;;9.35;1.77;;;16.70;99.30;;;;;;5051121;28;20017;-65
2022/11/01 08:50:14;;;;;;;9.82;1.73;;;16.70;99.40;;;;;;5053419;28;20105;-66
2022/11/01 08:52:40;;;;;;;13.77;1.90;;;16.70;99.20;;;;;;5056823;28;20024;-63
2022/11/01 08:55:08;;;;;;;7.93;1.90;;;16.70;99.10;;;;;;5060338;28;20393;-69
2022/11/01 08:57:34;;;;;;;9.35;1.80;;;16.70;99.20;;;;;;5052091;28;20016;-65
2022/11/01 09:00:00;;;;;;;10.93;1.77;;;16.70;99.30;;;;;;5048103;28;20036;-63
2022/11/01 09:02:26;;;;;;;12.27;2.28;;;16.70;99.20;;;;;;5042961;28;20096;-66
2022/11/01 09:04:51;;;;;;;9.73;1.95;;;16.70;99.10;;;;;;5044242;28;20529;-67
2022/11/01 09:07:17;;;;;;;14.68;2.28;;;16.70;98.80;;;;;;5046920;28;20025;-66
2022/11/01 09:09:43;;;;;;;9.55;2.15;;;16.70;98.90;;;;;;5041655;28;20036;-70
2022/11/01 09:12:11;;;;;;;10.77;2.05;;;16.70;98.50;;;;;;5056457;28;20086;-62
2022/11/01 09:14:36;;;;;;;12.32;2.30;;;16.70;98.40;;;;;;5058456;28;20044;-71
2022/11/01 09:17:02;;;;;;;11.20;1.90;;;16.70;98.40;;;;;;5042383;28;20066;-60
2022/11/01 09:19:28;;;;;;;9.93;2.28;;;16.70;98.40;;;;;;5050729;28;20056;-66
2022/11/01 09:21:53;;;;;;;11.75;2.03;;;16.70;98.40;;;;;;5050874;28;20029;-72
2022/11/01 09:24:19;;;;;;;11.82;2.40;;;16.70;98.30;;;;;;5039602;28;20030;-67
2022/11/01 09:26:44;;;;;;;10.00;1.98;;;16.70;98.10;;;;;;5046506;28;20052;-61
2022/11/01 09:29:10;;;;;;;15.25;2.20;;;16.70;97.90;;;;;;5042740;28;20036;-64
2022/11/01 09:31:36;;;;;;;10.95;2.40;;;16.70;97.90;;;;;;5040195;28;20033;-60
2022/11/01 09:34:02;;;;;;;12.13;2.10;;;16.70;98.00;;;;;;5048381;28;20672;-61
2022/11/01 09:36:28;;;;;;;13.00;2.38;;;16.70;98.10;;;;;;5047597;28;20032;-63
2022/11/01 09:38:55;;;;;;;15.38;2.65;;;16.60;98.20;;;;;;5055244;28;20071;-62
2022/11/01 09:41:29;;;;;;;14.68;2.47;;;16.60;98.30;;;;;;5050627;28;20021;-70
2022/11/01 09:43:58;;;;;;;11.82;2.15;;;16.60;98.40;;;;;;5051597;28;20029;-60
2022/11/01 09:46:30;;;;;;;13.70;3.50;;;16.60;98.40;;;;;;5047877;28;20025;-65
2022/11/01 09:48:58;;;;;;;17.33;2.15;;;16.60;98.40;;;;;;5043469;28;20386;-63
2022/11/01 09:51:24;;;;;;;11.90;2.03;;;16.60;98.20;;;;;;5052711;28;20557;-67
2022/11/01 09:53:53;;;;;;;10.48;1.63;;;16.70;97.80;;;;;;5059013;28;20025;-67
2022/11/01 09:56:35;;;;;;;14.02;2.80;;;16.70;97.90;;;;;;5048568;28;20163;-62
2022/11/01 09:59:17;;;;;;;13.90;1.88;;;16.70;97.30;;;;;;5047474;28;20077;-70
2022/11/01 10:02:02;;;;;;;17.67;1.90;;;16.80;97.40;;;;;;5043925;28;20825;-70
2022/11/01 10:05:02;;;;;;;10.20;2.10;;;16.80;97.20;;;;;;5043853;28;20036;-69
2022/11/01 10:08:00;;;;;;;8.18;1.70;;;16.70;97.10;;;;;;5042642;28;20061;-64
2022/11/01 10:10:34;;;;;;;10.07;2.50;;;16.60;96.90;;;;;;5047874;28;20037;-74
2022/11/01 10:13:18;;;;;;;14.48;1.98;;;16.60;96.90;;;;;;5042655;28;20743;-69
2022/11/01 10:15:52;;;;;;;14.57;2.35;;;16.50;96.70;;;;;;5049676;28;20500;-69
2022/11/01 10:18:28;;;;;;;12.93;2.20;;;16.50;96.60;;;;;;5047953;28;20099;-75
2022/11/01 10:21:18;;;;;;;10.90;2.30;;;16.50;96.70;;;;;;5045226;28;20028;-72
2022/11/01 10:23:47;;;;;;;14.02;1.83;;;16.50;97.00;;;;;;5038252;28;20036;-77
2022/11/01 10:26:20;;;;;;;10.15;1.80;;;16.50;96.80;;;;;;5043876;28;20119;-61
2022/11/01 10:28:59;;;;;;;10.32;1.40;;;16.40;96.30;;;;;;5046118;28;20098;-74
2022/11/01 10:31:27;;;;;;;13.20;2.38;;;16.40;96.90;;;;;;5051721;28;20033;-70
2022/11/01 10:34:24;;;;;;;13.93;2.15;;;16.50;96.70;;;;;;5048575;28;20074;-81
2022/11/01 10:36:55;;;;;;;14.45;2.58;;;16.50;96.60;;;;;;5058400;28;20053;-80
2022/11/01 10:39:55;;;;;;;14.70;2.28;;;16.50;96.50;;;;;;5050545;28;20029;-69
2022/11/01 10:42:20;;;;;;;11.50;2.15;;;16.50;96.70;;;;;;5050739;28;20032;-65
2022/11/01 10:44:53;;;;;;;12.00;1.92;;;16.40;97.00;;;;;;5054153;28;20033;-65
2022/11/01 10:47:21;;;;;;;5.80;1.63;;;16.50;97.20;;;;;;5050634;28;20019;-63
2022/11/01 10:49:51;;;;;;;8.23;1.52;;;16.50;97.40;;;;;;5047108;28;20041;-78
2022/11/01 10:52:23;;;;;;;6.97;1.75;;;16.50;97.40;;;;;;5050352;28;20029;-62
2022/11/01 10:54:50;;;;;;;9.88;1.95;;;16.50;97.00;;;;;;5048324;28;20021;-69
2022/11/01 10:57:45;;;;;;;8.63;2.00;;;16.50;96.90;;;;;;5057201;28;20064;-64
2022/11/01 11:00:19;;;;;;;7.00;2.00;;;16.50;97.00;;;;;;5051972;28;20107;-63
2022/11/01 11:02:49;;;;;;;11.82;2.15;;;16.50;97.30;;;;;;5055498;28;20068;-64
2022/11/01 11:05:15;;;;;;;9.75;1.25;;;16.60;97.60;;;;;;5055542;28;20052;-63
2022/11/01 11:07:41;;;;;;;9.15;1.75;;;16.60;97.60;;;;;;5058886;28;20398;-78
2022/11/01 11:10:25;;;;;;;11.35;2.05;;;16.70;97.60;;;;;;5048883;28;20036;-75
2022/11/01 11:12:56;;;;;;;9.70;1.98;;;16.70;97.60;;;;;;5052028;28;20112;-67
2022/11/01 11:15:32;;;;;;;10.18;1.73;;;16.70;97.70;;;;;;5053789;28;20381;-73
2022/11/01 11:18:01;;;;;;;6.70;1.65;;;16.70;97.60;;;;;;5056701;28;20039;-77
2022/11/01 11:20:29;;;;;;;10.73;1.92;;;16.70;97.60;;;;;;5053231;28;20120;-76
2022/11/01 11:23:00;;;;;;;10.10;1.48;;;16.70;97.70;;;;;;5054086;28;20506;-75
2022/11/01 11:25:32;;;;;;;8.60;1.83;;;16.70;97.80;;;;;;5059721;28;20031;-71
2022/11/01 11:27:59;;;;;;;6.90;1.60;;;16.80;97.10;;;;;;5045838;28;20104;-63
2022/11/01 11:30:31;;;;;;;9.50;2.08;;;16.70;96.70;;;;;;5053488;28;20041;-78
2022/11/01 11:32:57;;;;;;;;;;;16.80;96.70;;;;;;5059063;28;20017;-77
2022/11/01 11:35:27;;;;;;;11.18;2.17;;;16.70;97.10;;;;;;5051367;28;19909;-72
2022/11/01 11:38:04;;;;;;;10.95;2.00;;;16.70;96.40;;;;;;5058794;28;20689;-75
2022/11/01 11:40:41;;;;;;;14.30;2.20;;;16.70;96.40;;;;;;5053414;28;20100;-66
2022/11/01 11:43:22;;;;;;;8.98;1.70;;;16.70;96.50;;;;;;5056138;28;20111;-66
2022/11/01 11:46:09;;;;;;;10.90;1.95;;;16.70;96.40;;;;;;5053722;28;20039;-71
2022/11/01 11:48:51;;;;;;;9.02;1.38;;;16.70;96.30;;;;;;5053853;28;20111;-71
2022/11/01 11:51:17;;;;;;;11.70;1.65;;;16.70;96.00;;;;;;5058723;28;20032;-71
2022/11/01 11:53:43;;;;;;;9.13;2.00;;;16.70;96.30;;;;;;5054778;28;20020;-68
2022/11/01 11:56:11;;;;;;;9.90;1.60;;;16.70;96.60;;;;;;5061340;28;20033;-71
2022/11/01 11:58:36;;;;;;;9.57;1.85;;;16.70;96.60;;;;;;5052570;28;20029;-78
2022/11/01 12:01:07;;;;;;;8.90;1.40;;;16.70;97.00;;;;;;5049867;28;20470;-77
2022/11/01 12:03:48;;;;;;;6.38;1.77;;;16.80;97.50;;;;;;5054107;28;20025;-77
2022/11/01 12:06:26;;;;;;;6.18;1.75;;;16.90;97.60;;;;;;5053743;28;20029;-70
2022/11/01 12:08:59;;;;;;;6.53;1.40;;;16.90;97.70;;;;;;5036118;28;20041;-77
2022/11/01 12:11:38;;;;;;;9.25;1.50;;;16.90;97.90;;;;;;5046814;28;20051;-65
2022/11/01 12:14:17;;;;;;;7.88;1.98;;;17.00;98.20;;;;;;5047833;28;20021;-67
2022/11/01 12:16:43;;;;;;;6.70;1.38;;;17.10;97.90;;;;;;5047124;28;20018;-63
2022/11/01 12:19:24;;;;;;;8.05;1.83;;;17.00;97.90;;;;;;5042176;28;20382;-62
2022/11/01 12:21:50;;;;;;;7.00;1.60;;;17.10;97.80;;;;;;5034738;28;20025;-73
2022/11/01 12:24:21;;;;;;;11.15;1.58;;;17.10;98.10;;;;;;5039826;28;20030;-68
2022/11/01 12:26:50;;;;;;;9.43;1.75;;;17.10;98.00;;;;;;5042517;28;20487;-74
2022/11/01 12:29:15;;;;;;;11.27;2.00;;;17.10;98.10;;;;;;5039321;28;20041;-65
2022/11/01 12:31:43;;;;;;;14.57;2.25;;;17.20;97.70;;;;;;5041503;28;20024;-76
2022/11/01 12:34:31;;;;;;;9.27;1.48;;;17.20;97.30;;;;;;5045616;28;20159;-68
2022/11/01 12:37:05;;;;;;;5.53;1.55;;;17.20;97.70;;;;;;5045408;28;20020;-65
2022/11/01 12:39:49;;;;;;;10.80;1.70;;;17.20;97.50;;;;;;5046908;28;20017;-61
2022/11/01 12:42:42;;;;;;;9.63;1.52;;;17.20;97.70;;;;;;5044985;28;20037;-61
2022/11/01 12:45:18;;;;;;;8.95;1.38;;;17.20;96.80;;;;;;5045853;28;20037;-62
2022/11/01 12:47:51;;;;;;;7.13;1.40;;;17.20;97.50;;;;;;5058739;28;20048;-65
2022/11/01 12:50:29;;;;;;;9.32;1.90;;;17.20;97.50;;;;;;5053020;28;20546;-63
2022/11/01 12:53:32;;;;;;;6.95;1.52;;;17.20;97.20;;;;;;5038626;28;20025;-63
2022/11/01 12:55:58;;;;;;;7.75;1.73;;;17.30;97.40;;;;;;5041615;28;20044;-78
2022/11/01 12:58:25;;;;;;;11.05;1.98;;;17.20;97.50;;;;;;5044969;28;20033;-65
2022/11/01 13:00:54;;;;;;;12.05;1.77;;;17.30;97.00;;;;;;5044160;28;20501;-77
2022/11/01 13:03:24;;;;;;;8.70;1.35;;;17.30;97.60;;;;;;5049563;28;20033;-79